sensor_id;sensor_type;location;lat;lon;timestamp;P1;durP1;ratioP1;P2;durP2;ratioP2
71800;SDS011;59647;55.838;37.292;2023-07-28T16:49:15;4.75;;;1.98;;
71800;SDS011;59647;55.838;37.292;2023-07-28T16:51:41;1.98;;;1.10;;
71800;SDS011;59647;55.838;37.292;2023-07-28T16:54:06;3.65;;;1.10;;
71800;SDS011;59647;55.838;37.292;2023-07-28T16:56:32;1.75;;;1.05;;
71800;SDS011;59647;55.838;37.292;2023-07-28T16:58:58;5.85;;;0.90;;
71800;SDS011;59647;55.838;37.292;2023-07-28T17:01:24;1.65;;;1.00;;
71800;SDS011;59647;55.838;37.292;2023-07-28T17:03:50;4.60;;;1.08;;
71800;SDS011;59647;55.838;37.292;2023-07-28T17:06:16;1.48;;;0.90;;
71800;SDS011;59647;55.838;37.292;2023-07-28T17:08:42;1.67;;;0.90;;
71800;SDS011;59647;55.838;37.292;2023-07-28T17:11:08;3.33;;;0.98;;
71800;SDS011;59647;55.838;37.292;2023-07-28T17:13:34;1.35;;;0.85;;
71800;SDS011;59647;55.838;37.292;2023-07-28T17:16:00;5.35;;;0.93;;
71800;SDS011;59647;55.838;37.292;2023-07-28T17:18:25;2.22;;;1.40;;
71800;SDS011;59647;55.838;37.292;2023-07-28T17:20:51;3.53;;;1.38;;
71800;SDS011;59647;55.838;37.292;2023-07-28T17:23:17;2.38;;;1.25;;
71800;SDS011;59647;55.838;37.292;2023-07-28T17:25:43;4.57;;;1.48;;
71800;SDS011;59647;55.838;37.292;2023-07-28T17:28:09;2.28;;;1.15;;
71800;SDS011;59647;55.838;37.292;2023-07-28T17:30:35;2.03;;;1.13;;
71800;SDS011;59647;55.838;37.292;2023-07-28T17:33:01;3.10;;;1.00;;
71800;SDS011;59647;55.838;37.292;2023-07-28T17:35:27;2.85;;;1.05;;
71800;SDS011;59647;55.838;37.292;2023-07-28T17:37:54;3.88;;;1.00;;
71800;SDS011;59647;55.838;37.292;2023-07-28T17:40:20;1.55;;;0.90;;
71800;SDS011;59647;55.838;37.292;2023-07-28T17:42:46;4.20;;;0.98;;
71800;SDS011;59647;55.838;37.292;2023-07-28T17:45:15;2.00;;;1.00;;
71800;SDS011;59647;55.838;37.292;2023-07-28T17:47:41;3.63;;;1.02;;
71800;SDS011;59647;55.838;37.292;2023-07-28T17:50:07;6.35;;;1.20;;
71800;SDS011;59647;55.838;37.292;2023-07-28T17:52:34;6.78;;;0.98;;
71800;SDS011;59647;55.838;37.292;2023-07-28T17:55:01;2.45;;;1.10;;
71800;SDS011;59647;55.838;37.292;2023-07-28T17:57:30;2.80;;;0.82;;
71800;SDS011;59647;55.838;37.292;2023-07-28T17:59:56;3.25;;;0.90;;
71800;SDS011;59647;55.838;37.292;2023-07-28T18:02:22;3.38;;;1.00;;
71800;SDS011;59647;55.838;37.292;2023-07-28T18:04:48;3.65;;;1.20;;
71800;SDS011;59647;55.838;37.292;2023-07-28T18:07:15;1.85;;;1.00;;
71800;SDS011;59647;55.838;37.292;2023-07-28T18:09:41;3.17;;;1.00;;
71800;SDS011;59647;55.838;37.292;2023-07-28T18:12:07;1.90;;;1.15;;
71800;SDS011;59647;55.838;37.292;2023-07-28T18:14:33;1.92;;;1.15;;
71800;SDS011;59647;55.838;37.292;2023-07-28T18:16:59;3.22;;;1.02;;
71800;SDS011;59647;55.838;37.292;2023-07-28T18:19:25;1.85;;;0.82;;
71800;SDS011;59647;55.838;37.292;2023-07-28T18:21:51;1.60;;;1.00;;
71800;SDS011;59647;55.838;37.292;2023-07-28T18:24:17;3.38;;;1.10;;
71800;SDS011;59647;55.838;37.292;2023-07-28T18:26:46;1.67;;;0.93;;
71800;SDS011;59647;55.838;37.292;2023-07-28T18:29:13;2.38;;;0.98;;
71800;SDS011;59647;55.838;37.292;2023-07-28T18:31:39;3.13;;;1.40;;
71800;SDS011;59647;55.838;37.292;2023-07-28T18:34:05;5.28;;;1.10;;
71800;SDS011;59647;55.838;37.292;2023-07-28T18:36:37;4.25;;;1.23;;
71800;SDS011;59647;55.838;37.292;2023-07-28T18:45:54;6.07;;;1.15;;
71800;SDS011;59647;55.838;37.292;2023-07-28T18:48:25;2.63;;;1.30;;
71800;SDS011;59647;55.838;37.292;2023-07-28T18:50:54;3.35;;;1.00;;
71800;SDS011;59647;55.838;37.292;2023-07-28T18:53:21;2.78;;;1.30;;
71800;SDS011;59647;55.838;37.292;2023-07-28T18:55:50;3.40;;;1.20;;
71800;SDS011;59647;55.838;37.292;2023-07-28T18:58:16;3.75;;;1.40;;
71800;SDS011;59647;55.838;37.292;2023-07-28T19:00:41;6.55;;;1.17;;
71800;SDS011;59647;55.838;37.292;2023-07-28T19:03:07;3.95;;;1.25;;
71800;SDS011;59647;55.838;37.292;2023-07-28T19:05:33;1.75;;;0.98;;
71800;SDS011;59647;55.838;37.292;2023-07-28T19:07:59;1.85;;;1.15;;
71800;SDS011;59647;55.838;37.292;2023-07-28T19:10:25;4.15;;;1.15;;
71800;SDS011;59647;55.838;37.292;2023-07-28T19:12:54;1.98;;;1.10;;
71800;SDS011;59647;55.838;37.292;2023-07-28T19:15:20;5.63;;;1.17;;
71800;SDS011;59647;55.838;37.292;2023-07-28T19:17:46;1.73;;;1.10;;
71800;SDS011;59647;55.838;37.292;2023-07-28T19:20:12;2.38;;;1.33;;
71800;SDS011;59647;55.838;37.292;2023-07-28T19:22:41;1.50;;;0.90;;
71800;SDS011;59647;55.838;37.292;2023-07-28T19:25:07;1.40;;;0.90;;
71800;SDS011;59647;55.838;37.292;2023-07-28T19:27:33;5.35;;;1.15;;
71800;SDS011;59647;55.838;37.292;2023-07-28T19:30:01;2.40;;;1.17;;
71800;SDS011;59647;55.838;37.292;2023-07-28T19:32:31;7.82;;;1.27;;
71800;SDS011;59647;55.838;37.292;2023-07-28T19:34:57;6.25;;;1.40;;
71800;SDS011;59647;55.838;37.292;2023-07-28T19:37:23;2.20;;;1.15;;
71800;SDS011;59647;55.838;37.292;2023-07-28T19:39:49;6.38;;;1.92;;
71800;SDS011;59647;55.838;37.292;2023-07-28T19:42:17;2.05;;;0.90;;
71800;SDS011;59647;55.838;37.292;2023-07-28T19:44:43;2.75;;;1.27;;
71800;SDS011;59647;55.838;37.292;2023-07-28T19:47:08;2.40;;;1.17;;
71800;SDS011;59647;55.838;37.292;2023-07-28T19:49:34;1.65;;;1.00;;
71800;SDS011;59647;55.838;37.292;2023-07-28T19:52:00;5.15;;;1.00;;
71800;SDS011;59647;55.838;37.292;2023-07-28T19:54:26;18.02;;;1.70;;
71800;SDS011;59647;55.838;37.292;2023-07-28T19:56:55;4.95;;;1.67;;
71800;SDS011;59647;55.838;37.292;2023-07-28T19:59:21;3.40;;;1.25;;
71800;SDS011;59647;55.838;37.292;2023-07-28T20:01:48;3.25;;;1.10;;
71800;SDS011;59647;55.838;37.292;2023-07-28T20:04:15;2.97;;;1.33;;
71800;SDS011;59647;55.838;37.292;2023-07-28T20:06:41;8.68;;;1.58;;
71800;SDS011;59647;55.838;37.292;2023-07-28T20:09:07;4.00;;;1.40;;
71800;SDS011;59647;55.838;37.292;2023-07-28T20:11:33;2.22;;;1.05;;
71800;SDS011;59647;55.838;37.292;2023-07-28T20:13:59;2.45;;;1.30;;
71800;SDS011;59647;55.838;37.292;2023-07-28T20:16:25;1.77;;;1.05;;
71800;SDS011;59647;55.838;37.292;2023-07-28T20:18:53;3.83;;;1.20;;
71800;SDS011;59647;55.838;37.292;2023-07-28T20:21:19;3.85;;;1.35;;
71800;SDS011;59647;55.838;37.292;2023-07-28T20:23:45;2.00;;;1.02;;
71800;SDS011;59647;55.838;37.292;2023-07-28T20:26:11;5.68;;;1.33;;
71800;SDS011;59647;55.838;37.292;2023-07-28T20:28:43;4.88;;;1.90;;
71800;SDS011;59647;55.838;37.292;2023-07-28T20:31:09;2.05;;;1.20;;
71800;SDS011;59647;55.838;37.292;2023-07-28T20:33:35;4.00;;;1.33;;
71800;SDS011;59647;55.838;37.292;2023-07-28T20:36:01;2.83;;;1.38;;
71800;SDS011;59647;55.838;37.292;2023-07-28T20:38:27;2.05;;;1.08;;
71800;SDS011;59647;55.838;37.292;2023-07-28T20:40:53;3.00;;;1.30;;
71800;SDS011;59647;55.838;37.292;2023-07-28T20:43:19;11.82;;;1.70;;
71800;SDS011;59647;55.838;37.292;2023-07-28T20:45:47;2.17;;;1.20;;
71800;SDS011;59647;55.838;37.292;2023-07-28T20:48:14;2.95;;;1.27;;
71800;SDS011;59647;55.838;37.292;2023-07-28T20:50:40;5.32;;;1.20;;
71800;SDS011;59647;55.838;37.292;2023-07-28T20:53:06;3.30;;;1.35;;
71800;SDS011;59647;55.838;37.292;2023-07-28T20:55:31;4.47;;;1.38;;
71800;SDS011;59647;55.838;37.292;2023-07-28T20:57:58;2.63;;;1.23;;
71800;SDS011;59647;55.838;37.292;2023-07-28T21:00:27;3.80;;;1.30;;
71800;SDS011;59647;55.838;37.292;2023-07-28T21:02:54;2.75;;;1.33;;
71800;SDS011;59647;55.838;37.292;2023-07-28T21:05:20;2.67;;;1.20;;
71800;SDS011;59647;55.838;37.292;2023-07-28T21:07:49;4.10;;;1.65;;
71800;SDS011;59647;55.838;37.292;2023-07-28T21:10:15;4.70;;;1.50;;
71800;SDS011;59647;55.838;37.292;2023-07-28T21:12:41;2.47;;;1.40;;
71800;SDS011;59647;55.838;37.292;2023-07-28T21:15:07;3.28;;;1.75;;
71800;SDS011;59647;55.838;37.292;2023-07-28T21:17:39;6.32;;;1.65;;
71800;SDS011;59647;55.838;37.292;2023-07-28T21:20:07;3.70;;;1.60;;
71800;SDS011;59647;55.838;37.292;2023-07-28T21:22:33;5.13;;;1.70;;
71800;SDS011;59647;55.838;37.292;2023-07-28T21:24:59;3.70;;;1.40;;
71800;SDS011;59647;55.838;37.292;2023-07-28T21:27:25;1.88;;;1.20;;
71800;SDS011;59647;55.838;37.292;2023-07-28T21:29:51;5.80;;;1.42;;
71800;SDS011;59647;55.838;37.292;2023-07-28T21:32:17;3.08;;;1.77;;
71800;SDS011;59647;55.838;37.292;2023-07-28T21:34:46;6.80;;;1.77;;
71800;SDS011;59647;55.838;37.292;2023-07-28T21:37:12;3.05;;;1.75;;
71800;SDS011;59647;55.838;37.292;2023-07-28T21:39:38;2.70;;;1.70;;
71800;SDS011;59647;55.838;37.292;2023-07-28T21:42:07;4.47;;;2.10;;
71800;SDS011;59647;55.838;37.292;2023-07-28T21:44:34;2.80;;;1.65;;
71800;SDS011;59647;55.838;37.292;2023-07-28T21:47:01;4.55;;;1.75;;
71800;SDS011;59647;55.838;37.292;2023-07-28T21:49:27;4.93;;;1.35;;
71800;SDS011;59647;55.838;37.292;2023-07-28T21:51:53;4.97;;;1.77;;
71800;SDS011;59647;55.838;37.292;2023-07-28T21:54:20;8.77;;;1.90;;
71800;SDS011;59647;55.838;37.292;2023-07-28T21:56:47;8.15;;;2.08;;
71800;SDS011;59647;55.838;37.292;2023-07-28T21:59:13;6.35;;;1.73;;
71800;SDS011;59647;55.838;37.292;2023-07-28T22:01:38;2.63;;;1.55;;
71800;SDS011;59647;55.838;37.292;2023-07-28T22:04:04;4.93;;;1.50;;
71800;SDS011;59647;55.838;37.292;2023-07-28T22:06:30;3.60;;;1.92;;
71800;SDS011;59647;55.838;37.292;2023-07-28T22:08:56;3.10;;;1.98;;
71800;SDS011;59647;55.838;37.292;2023-07-28T22:11:22;6.95;;;2.00;;
71800;SDS011;59647;55.838;37.292;2023-07-28T22:13:49;5.18;;;1.92;;
71800;SDS011;59647;55.838;37.292;2023-07-28T22:16:16;2.90;;;1.88;;
71800;SDS011;59647;55.838;37.292;2023-07-28T22:18:42;4.85;;;1.95;;
71800;SDS011;59647;55.838;37.292;2023-07-28T22:21:12;2.78;;;1.60;;
71800;SDS011;59647;55.838;37.292;2023-07-28T22:23:38;8.93;;;1.95;;
71800;SDS011;59647;55.838;37.292;2023-07-28T22:26:04;3.38;;;2.00;;
71800;SDS011;59647;55.838;37.292;2023-07-28T22:28:31;3.92;;;2.65;;
71800;SDS011;59647;55.838;37.292;2023-07-28T22:30:57;4.95;;;2.97;;
71800;SDS011;59647;55.838;37.292;2023-07-28T22:33:23;6.18;;;1.85;;
71800;SDS011;59647;55.838;37.292;2023-07-28T22:35:49;5.47;;;1.98;;
71800;SDS011;59647;55.838;37.292;2023-07-28T22:38:15;4.38;;;2.03;;
71800;SDS011;59647;55.838;37.292;2023-07-28T22:40:43;4.43;;;2.17;;
71800;SDS011;59647;55.838;37.292;2023-07-28T22:43:09;7.00;;;2.33;;
71800;SDS011;59647;55.838;37.292;2023-07-28T22:45:35;2.65;;;1.70;;
71800;SDS011;59647;55.838;37.292;2023-07-28T22:48:01;3.15;;;2.00;;
71800;SDS011;59647;55.838;37.292;2023-07-28T22:50:27;3.58;;;1.83;;
71800;SDS011;59647;55.838;37.292;2023-07-28T22:52:54;3.45;;;1.75;;
71800;SDS011;59647;55.838;37.292;2023-07-28T22:55:22;5.68;;;2.83;;
71800;SDS011;59647;55.838;37.292;2023-07-28T22:57:48;4.72;;;2.30;;
71800;SDS011;59647;55.838;37.292;2023-07-28T23:00:14;5.63;;;2.15;;
71800;SDS011;59647;55.838;37.292;2023-07-28T23:02:51;2.70;;;1.50;;
71800;SDS011;59647;55.838;37.292;2023-07-28T23:05:17;5.05;;;1.90;;
71800;SDS011;59647;55.838;37.292;2023-07-28T23:07:44;3.60;;;1.90;;
71800;SDS011;59647;55.838;37.292;2023-07-28T23:10:10;2.67;;;1.80;;
71800;SDS011;59647;55.838;37.292;2023-07-28T23:12:39;9.32;;;1.88;;
71800;SDS011;59647;55.838;37.292;2023-07-28T23:15:05;2.67;;;2.03;;
71800;SDS011;59647;55.838;37.292;2023-07-28T23:17:34;12.05;;;2.00;;
71800;SDS011;59647;55.838;37.292;2023-07-28T23:20:00;8.60;;;2.13;;
71800;SDS011;59647;55.838;37.292;2023-07-28T23:22:26;7.43;;;2.45;;
71800;SDS011;59647;55.838;37.292;2023-07-28T23:24:52;6.97;;;2.83;;
71800;SDS011;59647;55.838;37.292;2023-07-28T23:27:18;3.35;;;1.52;;
71800;SDS011;59647;55.838;37.292;2023-07-28T23:29:46;4.30;;;2.00;;
71800;SDS011;59647;55.838;37.292;2023-07-28T23:32:13;5.63;;;2.03;;
71800;SDS011;59647;55.838;37.292;2023-07-28T23:34:39;3.78;;;2.00;;
71800;SDS011;59647;55.838;37.292;2023-07-28T23:37:04;8.35;;;1.95;;
71800;SDS011;59647;55.838;37.292;2023-07-28T23:39:31;5.57;;;1.90;;
71800;SDS011;59647;55.838;37.292;2023-07-28T23:41:57;3.13;;;2.03;;
71800;SDS011;59647;55.838;37.292;2023-07-28T23:44:26;4.15;;;2.08;;
71800;SDS011;59647;55.838;37.292;2023-07-28T23:46:52;5.15;;;1.92;;
71800;SDS011;59647;55.838;37.292;2023-07-28T23:49:18;3.08;;;1.90;;
71800;SDS011;59647;55.838;37.292;2023-07-28T23:51:47;3.88;;;2.42;;
71800;SDS011;59647;55.838;37.292;2023-07-28T23:54:14;3.88;;;2.35;;
71800;SDS011;59647;55.838;37.292;2023-07-28T23:56:40;8.93;;;2.42;;
71800;SDS011;59647;55.838;37.292;2023-07-28T23:59:06;3.55;;;2.17;;
